sensor_id;sensor_type;location;lat;lon;timestamp;pressure;altitude;pressure_sealevel;temperature;humidity
44359;BME280;30077;52.474;13.326;2023-02-21T00:00:36;100543.03;;;8.15;100.00
44359;BME280;30077;52.474;13.326;2023-02-21T00:05:55;100543.16;;;8.12;100.00
44359;BME280;30077;52.474;13.326;2023-02-21T00:11:14;100532.53;;;8.12;100.00
44359;BME280;30077;52.474;13.326;2023-02-21T00:16:33;100545.81;;;8.12;100.00
44359;BME280;30077;52.474;13.326;2023-02-21T00:21:52;100536.09;;;8.11;100.00
44359;BME280;30077;52.474;13.326;2023-02-21T00:27:11;100531.53;;;8.15;100.00
44359;BME280;30077;52.474;13.326;2023-02-21T00:32:30;100529.81;;;8.14;100.00
44359;BME280;30077;52.474;13.326;2023-02-21T00:37:50;100529.06;;;8.10;100.00
44359;BME280;30077;52.474;13.326;2023-02-21T00:43:08;100529.94;;;8.11;100.00
44359;BME280;30077;52.474;13.326;2023-02-21T00:48:28;100521.03;;;8.12;100.00
44359;BME280;30077;52.474;13.326;2023-02-21T00:53:46;100522.13;;;8.06;100.00
44359;BME280;30077;52.474;13.326;2023-02-21T00:59:05;100516.81;;;8.06;100.00
44359;BME280;30077;52.474;13.326;2023-02-21T01:04:24;100516.81;;;8.06;100.00
44359;BME280;30077;52.474;13.326;2023-02-21T01:09:43;100520.34;;;8.07;100.00
44359;BME280;30077;52.474;13.326;2023-02-21T01:15:02;100509.66;;;8.08;100.00
44359;BME280;30077;52.474;13.326;2023-02-21T01:20:21;100498.03;;;8.11;100.00
44359;BME280;30077;52.474;13.326;2023-02-21T01:25:40;100479.50;;;8.09;100.00
44359;BME280;30077;52.474;13.326;2023-02-21T01:30:59;100490.00;;;8.12;100.00
44359;BME280;30077;52.474;13.326;2023-02-21T01:36:18;100491.69;;;8.15;100.00
44359;BME280;30077;52.474;13.326;2023-02-21T01:41:37;100484.56;;;8.15;100.00
44359;BME280;30077;52.474;13.326;2023-02-21T01:46:57;100485.41;;;8.17;100.00
44359;BME280;30077;52.474;13.326;2023-02-21T01:52:16;100470.50;;;8.13;100.00
44359;BME280;30077;52.474;13.326;2023-02-21T01:57:35;100478.34;;;8.16;100.00
44359;BME280;30077;52.474;13.326;2023-02-21T02:03:01;100477.28;;;8.20;100.00
44359;BME280;30077;52.474;13.326;2023-02-21T02:08:20;100482.19;;;8.31;100.00
44359;BME280;30077;52.474;13.326;2023-02-21T02:13:48;100467.19;;;8.30;100.00
44359;BME280;30077;52.474;13.326;2023-02-21T02:19:03;100465.22;;;8.35;100.00
44359;BME280;30077;52.474;13.326;2023-02-21T02:24:29;100468.50;;;8.42;100.00
44359;BME280;30077;52.474;13.326;2023-02-21T02:34:48;100468.09;;;8.53;100.00
44359;BME280;30077;52.474;13.326;2023-02-21T02:39:56;100444.00;;;8.57;100.00
44359;BME280;30077;52.474;13.326;2023-02-21T02:45:10;100443.09;;;8.57;100.00
44359;BME280;30077;52.474;13.326;2023-02-21T02:50:12;100454.75;;;8.54;100.00
44359;BME280;30077;52.474;13.326;2023-02-21T02:55:25;100453.00;;;8.53;100.00
44359;BME280;30077;52.474;13.326;2023-02-21T03:00:29;100454.13;;;8.48;100.00
44359;BME280;30077;52.474;13.326;2023-02-21T03:10:54;100442.00;;;8.62;100.00
44359;BME280;30077;52.474;13.326;2023-02-21T03:21:16;100439.84;;;8.72;100.00
44359;BME280;30077;52.474;13.326;2023-02-21T03:26:17;100428.88;;;8.80;100.00
44359;BME280;30077;52.474;13.326;2023-02-21T03:31:19;100450.78;;;8.86;100.00
44359;BME280;30077;52.474;13.326;2023-02-21T03:36:20;100444.31;;;8.92;100.00
44359;BME280;30077;52.474;13.326;2023-02-21T03:41:21;100442.59;;;8.91;100.00
44359;BME280;30077;52.474;13.326;2023-02-21T03:46:21;100446.94;;;8.94;100.00
44359;BME280;30077;52.474;13.326;2023-02-21T03:51:21;100447.47;;;9.02;100.00
44359;BME280;30077;52.474;13.326;2023-02-21T03:56:21;100440.06;;;8.88;100.00
44359;BME280;30077;52.474;13.326;2023-02-21T04:01:22;100440.47;;;8.99;100.00
44359;BME280;30077;52.474;13.326;2023-02-21T04:06:23;100452.47;;;9.09;100.00
44359;BME280;30077;52.474;13.326;2023-02-21T04:11:23;100465.69;;;9.11;100.00
44359;BME280;30077;52.474;13.326;2023-02-21T04:16:23;100461.19;;;9.13;100.00
44359;BME280;30077;52.474;13.326;2023-02-21T04:21:23;100469.91;;;9.16;100.00
44359;BME280;30077;52.474;13.326;2023-02-21T04:26:25;100474.38;;;9.16;100.00
44359;BME280;30077;52.474;13.326;2023-02-21T04:31:25;100467.91;;;9.22;100.00
44359;BME280;30077;52.474;13.326;2023-02-21T04:36:25;100475.25;;;9.16;100.00
44359;BME280;30077;52.474;13.326;2023-02-21T04:41:25;100488.00;;;9.08;100.00
44359;BME280;30077;52.474;13.326;2023-02-21T04:46:26;100484.00;;;8.98;100.00
44359;BME280;30077;52.474;13.326;2023-02-21T04:51:26;100480.38;;;8.79;100.00
44359;BME280;30077;52.474;13.326;2023-02-21T04:56:26;100469.09;;;8.72;100.00
44359;BME280;30077;52.474;13.326;2023-02-21T05:01:29;100465.81;;;8.65;100.00
44359;BME280;30077;52.474;13.326;2023-02-21T05:06:30;100473.91;;;8.62;100.00
44359;BME280;30077;52.474;13.326;2023-02-21T05:11:32;100477.50;;;8.61;100.00
44359;BME280;30077;52.474;13.326;2023-02-21T05:16:33;100475.63;;;8.63;100.00
44359;BME280;30077;52.474;13.326;2023-02-21T05:21:34;100478.31;;;8.63;100.00
44359;BME280;30077;52.474;13.326;2023-02-21T05:26:35;100482.00;;;8.59;100.00
44359;BME280;30077;52.474;13.326;2023-02-21T05:31:36;100473.09;;;8.60;100.00
44359;BME280;30077;52.474;13.326;2023-02-21T05:36:37;100479.91;;;8.67;100.00
44359;BME280;30077;52.474;13.326;2023-02-21T05:41:37;100485.38;;;8.64;100.00
44359;BME280;30077;52.474;13.326;2023-02-21T05:46:37;100490.84;;;8.60;100.00
44359;BME280;30077;52.474;13.326;2023-02-21T05:51:38;100480.41;;;8.55;100.00
44359;BME280;30077;52.474;13.326;2023-02-21T05:56:40;100502.84;;;8.48;100.00
44359;BME280;30077;52.474;13.326;2023-02-21T06:01:41;100515.47;;;8.43;100.00
44359;BME280;30077;52.474;13.326;2023-02-21T06:06:41;100515.47;;;8.43;100.00
44359;BME280;30077;52.474;13.326;2023-02-21T06:11:42;100524.56;;;8.36;100.00
44359;BME280;30077;52.474;13.326;2023-02-21T06:16:42;100515.66;;;8.37;100.00
44359;BME280;30077;52.474;13.326;2023-02-21T06:21:42;100535.31;;;8.33;100.00
44359;BME280;30077;52.474;13.326;2023-02-21T06:26:43;100546.66;;;8.38;100.00
44359;BME280;30077;52.474;13.326;2023-02-21T06:31:43;100552.22;;;8.30;100.00
44359;BME280;30077;52.474;13.326;2023-02-21T06:36:44;100554.88;;;8.30;100.00
44359;BME280;30077;52.474;13.326;2023-02-21T06:41:44;100556.78;;;8.27;100.00
44359;BME280;30077;52.474;13.326;2023-02-21T06:46:47;100563.63;;;8.34;100.00
44359;BME280;30077;52.474;13.326;2023-02-21T06:51:49;100567.22;;;8.33;100.00
44359;BME280;30077;52.474;13.326;2023-02-21T06:56:49;100565.59;;;8.29;100.00
44359;BME280;30077;52.474;13.326;2023-02-21T07:01:49;100587.66;;;8.31;100.00
44359;BME280;30077;52.474;13.326;2023-02-21T07:06:51;100596.44;;;8.33;100.00
44359;BME280;30077;52.474;13.326;2023-02-21T07:11:51;100605.28;;;8.33;100.00
44359;BME280;30077;52.474;13.326;2023-02-21T07:16:51;100619.53;;;8.31;100.00
44359;BME280;30077;52.474;13.326;2023-02-21T07:21:51;100627.41;;;8.34;100.00
44359;BME280;30077;52.474;13.326;2023-02-21T07:26:51;100646.13;;;8.31;100.00
44359;BME280;30077;52.474;13.326;2023-02-21T07:31:52;100657.69;;;8.30;100.00
44359;BME280;30077;52.474;13.326;2023-02-21T07:36:52;100657.63;;;8.31;100.00
44359;BME280;30077;52.474;13.326;2023-02-21T07:41:52;100654.19;;;8.28;100.00
44359;BME280;30077;52.474;13.326;2023-02-21T07:46:54;100646.63;;;8.42;100.00
44359;BME280;30077;52.474;13.326;2023-02-21T07:51:54;100662.72;;;8.39;100.00
44359;BME280;30077;52.474;13.326;2023-02-21T07:56:54;100656.19;;;8.48;100.00
44359;BME280;30077;52.474;13.326;2023-02-21T08:01:55;100668.97;;;8.61;100.00
44359;BME280;30077;52.474;13.326;2023-02-21T08:06:58;100671.53;;;8.64;100.00
44359;BME280;30077;52.474;13.326;2023-02-21T08:11:59;100679.50;;;8.64;100.00
44359;BME280;30077;52.474;13.326;2023-02-21T08:16:59;100682.84;;;8.70;100.00
44359;BME280;30077;52.474;13.326;2023-02-21T08:21:59;100696.63;;;8.81;100.00
44359;BME280;30077;52.474;13.326;2023-02-21T08:26:59;100700.78;;;8.88;100.00
44359;BME280;30077;52.474;13.326;2023-02-21T08:31:59;100700.09;;;9.06;100.00
44359;BME280;30077;52.474;13.326;2023-02-21T08:37:00;100697.44;;;9.06;100.00
44359;BME280;30077;52.474;13.326;2023-02-21T08:42:00;100709.47;;;9.16;100.00
44359;BME280;30077;52.474;13.326;2023-02-21T08:47:01;100711.63;;;9.29;100.00
44359;BME280;30077;52.474;13.326;2023-02-21T08:52:01;100717.66;;;9.34;100.00
44359;BME280;30077;52.474;13.326;2023-02-21T08:57:01;100715.91;;;9.33;100.00
44359;BME280;30077;52.474;13.326;2023-02-21T09:02:01;100703.31;;;9.38;100.00
44359;BME280;30077;52.474;13.326;2023-02-21T09:07:01;100725.78;;;9.31;100.00
44359;BME280;30077;52.474;13.326;2023-02-21T09:12:02;100724.72;;;9.35;100.00
44359;BME280;30077;52.474;13.326;2023-02-21T09:17:03;100727.78;;;9.48;100.00
44359;BME280;30077;52.474;13.326;2023-02-21T09:22:05;100727.03;;;9.21;100.00
44359;BME280;30077;52.474;13.326;2023-02-21T09:27:05;100737.22;;;9.33;100.00
44359;BME280;30077;52.474;13.326;2023-02-21T09:32:05;100749.25;;;9.43;100.00
44359;BME280;30077;52.474;13.326;2023-02-21T09:37:06;100758.50;;;9.56;100.00
44359;BME280;30077;52.474;13.326;2023-02-21T09:42:06;100756.81;;;9.76;100.00
44359;BME280;30077;52.474;13.326;2023-02-21T09:47:06;100774.56;;;9.77;100.00
44359;BME280;30077;52.474;13.326;2023-02-21T09:57:26;100779.00;;;9.98;100.00
44359;BME280;30077;52.474;13.326;2023-02-21T10:02:33;100775.66;;;10.15;100.00
44359;BME280;30077;52.474;13.326;2023-02-21T10:07:38;100775.91;;;10.31;100.00
44359;BME280;30077;52.474;13.326;2023-02-21T10:12:43;100771.78;;;10.44;100.00
44359;BME280;30077;52.474;13.326;2023-02-21T10:22:45;100768.47;;;10.80;100.00
44359;BME280;30077;52.474;13.326;2023-02-21T10:27:47;100769.72;;;11.31;100.00
44359;BME280;30077;52.474;13.326;2023-02-21T10:32:48;100786.00;;;11.25;100.00
44359;BME280;30077;52.474;13.326;2023-02-21T10:37:50;100785.69;;;10.93;100.00
44359;BME280;30077;52.474;13.326;2023-02-21T10:42:51;100785.25;;;10.82;100.00
44359;BME280;30077;52.474;13.326;2023-02-21T10:48:00;100788.88;;;11.01;100.00
44359;BME280;30077;52.474;13.326;2023-02-21T10:53:02;100779.19;;;10.99;100.00
44359;BME280;30077;52.474;13.326;2023-02-21T10:58:06;100785.81;;;10.90;100.00
44359;BME280;30077;52.474;13.326;2023-02-21T11:08:32;100788.34;;;10.73;98.30
44359;BME280;30077;52.474;13.326;2023-02-21T11:13:33;100781.81;;;10.59;95.50
44359;BME280;30077;52.474;13.326;2023-02-21T11:18:35;100786.81;;;10.47;94.33
44359;BME280;30077;52.474;13.326;2023-02-21T11:23:35;100780.09;;;10.79;93.49
44359;BME280;30077;52.474;13.326;2023-02-21T11:28:39;100797.00;;;11.19;92.11
44359;BME280;30077;52.474;13.326;2023-02-21T11:34:15;100791.00;;;10.73;89.97
44359;BME280;30077;52.474;13.326;2023-02-21T11:39:19;100828.09;;;10.58;92.26
44359;BME280;30077;52.474;13.326;2023-02-21T11:44:27;100805.41;;;10.89;91.87
44359;BME280;30077;52.474;13.326;2023-02-21T11:54:32;100798.22;;;10.71;91.83
44359;BME280;30077;52.474;13.326;2023-02-21T11:59:42;100796.22;;;10.55;92.20
44359;BME280;30077;52.474;13.326;2023-02-21T12:10:00;100806.56;;;10.43;93.31
44359;BME280;30077;52.474;13.326;2023-02-21T12:20:16;100808.47;;;10.59;92.03
44359;BME280;30077;52.474;13.326;2023-02-21T12:25:25;100814.72;;;10.38;92.41
44359;BME280;30077;52.474;13.326;2023-02-21T12:35:45;100816.84;;;10.30;93.82
44359;BME280;30077;52.474;13.326;2023-02-21T12:51:22;100793.53;;;10.55;92.94
44359;BME280;30077;52.474;13.326;2023-02-21T13:01:39;100790.59;;;10.82;90.69
44359;BME280;30077;52.474;13.326;2023-02-21T13:06:44;100784.38;;;11.02;89.85
44359;BME280;30077;52.474;13.326;2023-02-21T13:12:03;100802.75;;;10.89;90.15
44359;BME280;30077;52.474;13.326;2023-02-21T13:17:08;100790.31;;;11.08;90.71
44359;BME280;30077;52.474;13.326;2023-02-21T13:28:11;100788.44;;;11.11;87.74
44359;BME280;30077;52.474;13.326;2023-02-21T13:33:19;100779.66;;;11.27;87.14
44359;BME280;30077;52.474;13.326;2023-02-21T13:38:21;100787.88;;;11.04;83.99
44359;BME280;30077;52.474;13.326;2023-02-21T13:43:29;100785.13;;;11.05;83.30
44359;BME280;30077;52.474;13.326;2023-02-21T13:48:30;100785.41;;;11.18;83.36
44359;BME280;30077;52.474;13.326;2023-02-21T13:53:31;100778.66;;;11.11;84.15
44359;BME280;30077;52.474;13.326;2023-02-21T13:58:37;100786.94;;;11.05;82.67
44359;BME280;30077;52.474;13.326;2023-02-21T14:03:37;100778.50;;;10.75;83.38
44359;BME280;30077;52.474;13.326;2023-02-21T14:13:45;100784.94;;;10.90;82.92
44359;BME280;30077;52.474;13.326;2023-02-21T14:23:51;100780.75;;;10.43;81.90
44359;BME280;30077;52.474;13.326;2023-02-21T14:33:57;100788.78;;;10.42;81.53
44359;BME280;30077;52.474;13.326;2023-02-21T14:38:57;100782.25;;;10.28;81.83
44359;BME280;30077;52.474;13.326;2023-02-21T14:44:04;100792.53;;;10.16;82.45
44359;BME280;30077;52.474;13.326;2023-02-21T14:49:30;100805.53;;;10.23;82.25
44359;BME280;30077;52.474;13.326;2023-02-21T15:00:01;100798.47;;;10.22;83.21
44359;BME280;30077;52.474;13.326;2023-02-21T15:05:16;100799.72;;;10.13;84.51
44359;BME280;30077;52.474;13.326;2023-02-21T15:15:21;100810.41;;;10.13;84.70
44359;BME280;30077;52.474;13.326;2023-02-21T15:20:22;100812.75;;;9.99;83.20
44359;BME280;30077;52.474;13.326;2023-02-21T15:25:22;100810.94;;;9.78;84.17
44359;BME280;30077;52.474;13.326;2023-02-21T15:30:29;100823.00;;;9.86;84.39
44359;BME280;30077;52.474;13.326;2023-02-21T15:35:31;100825.88;;;9.82;84.72
44359;BME280;30077;52.474;13.326;2023-02-21T15:40:32;100827.72;;;9.80;85.14
44359;BME280;30077;52.474;13.326;2023-02-21T15:45:37;100832.28;;;9.76;85.58
44359;BME280;30077;52.474;13.326;2023-02-21T15:50:42;100844.72;;;9.77;85.67
44359;BME280;30077;52.474;13.326;2023-02-21T15:55:44;100844.19;;;9.68;87.57
44359;BME280;30077;52.474;13.326;2023-02-21T16:00:46;100840.84;;;9.62;86.86
44359;BME280;30077;52.474;13.326;2023-02-21T16:05:46;100843.84;;;9.53;87.05
44359;BME280;30077;52.474;13.326;2023-02-21T16:10:46;100859.00;;;9.51;87.15
44359;BME280;30077;52.474;13.326;2023-02-21T16:15:47;100850.53;;;9.40;88.29
44359;BME280;30077;52.474;13.326;2023-02-21T16:20:47;100856.22;;;9.31;89.75
44359;BME280;30077;52.474;13.326;2023-02-21T16:31:25;100862.25;;;9.11;90.43
44359;BME280;30077;52.474;13.326;2023-02-21T16:36:26;100875.03;;;9.01;90.51
44359;BME280;30077;52.474;13.326;2023-02-21T16:41:27;100871.66;;;8.96;91.64
44359;BME280;30077;52.474;13.326;2023-02-21T16:46:27;100872.69;;;8.92;91.40
44359;BME280;30077;52.474;13.326;2023-02-21T16:51:28;100881.78;;;8.86;92.66
44359;BME280;30077;52.474;13.326;2023-02-21T16:56:32;100890.91;;;8.78;93.67
44359;BME280;30077;52.474;13.326;2023-02-21T17:01:32;100890.16;;;8.74;94.51
44359;BME280;30077;52.474;13.326;2023-02-21T17:06:33;100893.91;;;8.68;94.24
44359;BME280;30077;52.474;13.326;2023-02-21T17:11:33;100904.75;;;8.62;94.27
44359;BME280;30077;52.474;13.326;2023-02-21T17:16:33;100906.56;;;8.60;94.48
44359;BME280;30077;52.474;13.326;2023-02-21T17:21:33;100909.97;;;8.65;94.21
44359;BME280;30077;52.474;13.326;2023-02-21T17:26:34;100914.06;;;8.76;94.71
44359;BME280;30077;52.474;13.326;2023-02-21T17:31:34;100923.50;;;8.84;93.33
44359;BME280;30077;52.474;13.326;2023-02-21T17:36:34;100932.16;;;8.91;93.00
44359;BME280;30077;52.474;13.326;2023-02-21T17:41:34;100933.97;;;8.89;94.19
44359;BME280;30077;52.474;13.326;2023-02-21T17:46:34;100935.69;;;8.91;93.57
44359;BME280;30077;52.474;13.326;2023-02-21T17:51:35;100939.22;;;8.92;92.98
44359;BME280;30077;52.474;13.326;2023-02-21T17:56:35;100944.44;;;8.95;93.07
44359;BME280;30077;52.474;13.326;2023-02-21T18:01:35;100948.88;;;8.95;92.29
44359;BME280;30077;52.474;13.326;2023-02-21T18:06:35;100949.94;;;8.89;92.98
44359;BME280;30077;52.474;13.326;2023-02-21T18:11:36;100956.91;;;8.93;92.89
44359;BME280;30077;52.474;13.326;2023-02-21T18:16:36;100955.38;;;8.86;93.14
44359;BME280;30077;52.474;13.326;2023-02-21T18:21:36;100958.88;;;8.88;92.86
44359;BME280;30077;52.474;13.326;2023-02-21T18:26:40;100958.25;;;8.80;93.73
44359;BME280;30077;52.474;13.326;2023-02-21T18:31:40;100969.81;;;8.79;93.53
44359;BME280;30077;52.474;13.326;2023-02-21T18:36:46;100966.44;;;8.74;93.86
44359;BME280;30077;52.474;13.326;2023-02-21T18:41:46;100973.59;;;8.72;93.41
44359;BME280;30077;52.474;13.326;2023-02-21T18:46:50;100975.44;;;8.70;94.00
44359;BME280;30077;52.474;13.326;2023-02-21T18:51:53;100980.94;;;8.63;93.40
44359;BME280;30077;52.474;13.326;2023-02-21T18:56:53;100973.88;;;8.62;94.31
44359;BME280;30077;52.474;13.326;2023-02-21T19:01:54;100972.25;;;8.58;93.76
44359;BME280;30077;52.474;13.326;2023-02-21T19:06:54;100973.06;;;8.60;93.64
44359;BME280;30077;52.474;13.326;2023-02-21T19:11:55;100980.13;;;8.61;93.21
44359;BME280;30077;52.474;13.326;2023-02-21T19:16:56;100980.06;;;8.63;93.34
44359;BME280;30077;52.474;13.326;2023-02-21T19:21:56;100984.47;;;8.64;93.76
44359;BME280;30077;52.474;13.326;2023-02-21T19:26:57;100992.66;;;8.58;93.25
44359;BME280;30077;52.474;13.326;2023-02-21T19:31:57;100988.03;;;8.64;92.67
44359;BME280;30077;52.474;13.326;2023-02-21T19:36:57;100997.13;;;8.57;91.91
44359;BME280;30077;52.474;13.326;2023-02-21T19:41:57;101011.59;;;8.47;92.79
44359;BME280;30077;52.474;13.326;2023-02-21T19:46:57;101009.03;;;8.44;91.63
44359;BME280;30077;52.474;13.326;2023-02-21T19:51:58;101018.06;;;8.38;92.33
44359;BME280;30077;52.474;13.326;2023-02-21T19:56:58;101019.81;;;8.39;91.97
44359;BME280;30077;52.474;13.326;2023-02-21T20:01:58;101016.91;;;8.47;90.96
44359;BME280;30077;52.474;13.326;2023-02-21T20:06:59;101026.72;;;8.45;91.37
44359;BME280;30077;52.474;13.326;2023-02-21T20:11:59;101015.28;;;8.43;92.57
44359;BME280;30077;52.474;13.326;2023-02-21T20:17:01;101023.28;;;8.41;91.95
44359;BME280;30077;52.474;13.326;2023-02-21T20:22:01;101034.69;;;8.45;92.70
44359;BME280;30077;52.474;13.326;2023-02-21T20:27:02;101036.34;;;8.49;91.90
44359;BME280;30077;52.474;13.326;2023-02-21T20:32:02;101040.00;;;8.45;91.62
44359;BME280;30077;52.474;13.326;2023-02-21T20:37:02;101037.31;;;8.47;91.25
44359;BME280;30077;52.474;13.326;2023-02-21T20:42:03;101033.06;;;8.41;91.91
44359;BME280;30077;52.474;13.326;2023-02-21T20:47:05;101043.78;;;8.38;90.57
44359;BME280;30077;52.474;13.326;2023-02-21T20:52:08;101039.72;;;8.25;91.07
44359;BME280;30077;52.474;13.326;2023-02-21T20:57:09;101047.41;;;8.34;90.32
44359;BME280;30077;52.474;13.326;2023-02-21T21:02:09;101053.75;;;8.30;90.89
44359;BME280;30077;52.474;13.326;2023-02-21T21:07:19;101047.78;;;8.22;91.19
44359;BME280;30077;52.474;13.326;2023-02-21T21:12:22;101054.00;;;8.20;93.45
44359;BME280;30077;52.474;13.326;2023-02-21T21:17:22;101058.09;;;8.01;95.22
44359;BME280;30077;52.474;13.326;2023-02-21T21:22:23;101051.97;;;7.99;95.83
44359;BME280;30077;52.474;13.326;2023-02-21T21:27:24;101053.44;;;8.09;95.22
44359;BME280;30077;52.474;13.326;2023-02-21T21:32:25;101055.13;;;8.13;96.21
44359;BME280;30077;52.474;13.326;2023-02-21T21:37:26;101058.66;;;8.12;97.29
44359;BME280;30077;52.474;13.326;2023-02-21T21:42:27;101058.66;;;8.12;97.66
44359;BME280;30077;52.474;13.326;2023-02-21T21:47:28;101056.84;;;8.14;98.03
44359;BME280;30077;52.474;13.326;2023-02-21T21:52:30;101056.75;;;8.17;98.26
44359;BME280;30077;52.474;13.326;2023-02-21T21:57:31;101060.47;;;8.12;99.33
44359;BME280;30077;52.474;13.326;2023-02-21T22:02:33;101066.63;;;8.12;99.79
44359;BME280;30077;52.474;13.326;2023-02-21T22:07:33;101065.81;;;8.10;100.00
44359;BME280;30077;52.474;13.326;2023-02-21T22:12:33;101064.13;;;8.08;100.00
44359;BME280;30077;52.474;13.326;2023-02-21T22:17:33;101072.88;;;8.11;100.00
44359;BME280;30077;52.474;13.326;2023-02-21T22:22:33;101061.47;;;8.08;100.00
44359;BME280;30077;52.474;13.326;2023-02-21T22:27:33;101067.66;;;8.08;100.00
44359;BME280;30077;52.474;13.326;2023-02-21T22:32:34;101068.47;;;8.10;100.00
44359;BME280;30077;52.474;13.326;2023-02-21T22:37:34;101078.19;;;8.11;100.00
44359;BME280;30077;52.474;13.326;2023-02-21T22:42:35;101077.47;;;8.06;100.00
44359;BME280;30077;52.474;13.326;2023-02-21T22:47:35;101081.00;;;8.07;100.00
44359;BME280;30077;52.474;13.326;2023-02-21T22:52:35;101080.13;;;8.06;100.00
44359;BME280;30077;52.474;13.326;2023-02-21T22:57:35;101069.56;;;8.03;100.00
44359;BME280;30077;52.474;13.326;2023-02-21T23:02:35;101070.75;;;7.93;100.00
44359;BME280;30077;52.474;13.326;2023-02-21T23:07:37;101063.78;;;7.89;100.00
44359;BME280;30077;52.474;13.326;2023-02-21T23:12:37;101064.78;;;7.85;100.00
44359;BME280;30077;52.474;13.326;2023-02-21T23:17:37;101066.50;;;7.86;100.00
44359;BME280;30077;52.474;13.326;2023-02-21T23:22:37;101066.44;;;7.89;100.00
44359;BME280;30077;52.474;13.326;2023-02-21T23:27:38;101072.56;;;7.91;100.00
44359;BME280;30077;52.474;13.326;2023-02-21T23:32:38;101064.56;;;7.91;100.00
44359;BME280;30077;52.474;13.326;2023-02-21T23:37:38;101071.53;;;7.95;100.00
44359;BME280;30077;52.474;13.326;2023-02-21T23:42:42;101064.47;;;7.95;100.00
44359;BME280;30077;52.474;13.326;2023-02-21T23:47:43;101062.69;;;7.96;100.00
44359;BME280;30077;52.474;13.326;2023-02-21T23:52:44;101077.75;;;7.95;100.00
44359;BME280;30077;52.474;13.326;2023-02-21T23:57:45;101066.16;;;7.98;100.00
